sensor_id;sensor_type;location;lat;lon;timestamp;pressure;altitude;pressure_sealevel;temperature;humidity
73566;BME280;61846;52.970;-3.168;2022-12-18T00:01:44;100937.13;;;3.15;48.68
73566;BME280;61846;52.970;-3.168;2022-12-18T00:04:18;100934.64;;;4.29;46.49
73566;BME280;61846;52.970;-3.168;2022-12-18T00:06:36;100935.30;;;3.56;47.49
73566;BME280;61846;52.970;-3.168;2022-12-18T00:09:02;100938.00;;;4.25;45.29
73566;BME280;61846;52.970;-3.168;2022-12-18T00:11:28;100944.13;;;4.96;44.26
73566;BME280;61846;52.970;-3.168;2022-12-18T00:13:53;100945.44;;;5.70;42.51
73566;BME280;61846;52.970;-3.168;2022-12-18T00:16:20;100947.06;;;6.03;41.21
73566;BME280;61846;52.970;-3.168;2022-12-18T00:18:43;100942.63;;;6.11;41.33
73566;BME280;61846;52.970;-3.168;2022-12-18T00:21:11;100937.08;;;6.35;40.41
73566;BME280;61846;52.970;-3.168;2022-12-18T00:23:35;100936.87;;;5.80;41.63
73566;BME280;61846;52.970;-3.168;2022-12-18T00:26:00;100935.50;;;6.31;40.45
73566;BME280;61846;52.970;-3.168;2022-12-18T00:28:25;100930.57;;;6.17;40.63
73566;BME280;61846;52.970;-3.168;2022-12-18T00:30:51;100924.27;;;6.48;39.94
73566;BME280;61846;52.970;-3.168;2022-12-18T00:33:16;100923.65;;;6.61;39.55
73566;BME280;61846;52.970;-3.168;2022-12-18T00:35:42;100920.67;;;6.72;39.15
73566;BME280;61846;52.970;-3.168;2022-12-18T00:38:07;100924.58;;;6.67;39.12
73566;BME280;61846;52.970;-3.168;2022-12-18T00:40:32;100931.05;;;6.11;39.69
73566;BME280;61846;52.970;-3.168;2022-12-18T00:42:58;100930.79;;;6.02;40.79
73566;BME280;61846;52.970;-3.168;2022-12-18T00:45:26;100929.55;;;6.55;39.82
73566;BME280;61846;52.970;-3.168;2022-12-18T00:47:49;100926.01;;;6.18;39.62
73566;BME280;61846;52.970;-3.168;2022-12-18T00:50:14;100928.39;;;6.40;39.61
73566;BME280;61846;52.970;-3.168;2022-12-18T00:52:40;100929.26;;;6.73;39.26
73566;BME280;61846;52.970;-3.168;2022-12-18T00:55:06;100922.46;;;5.98;39.21
73566;BME280;61846;52.970;-3.168;2022-12-18T00:57:31;100923.21;;;6.50;39.03
73566;BME280;61846;52.970;-3.168;2022-12-18T00:59:58;100922.18;;;6.43;39.07
73566;BME280;61846;52.970;-3.168;2022-12-18T01:02:22;100914.46;;;5.70;40.25
73566;BME280;61846;52.970;-3.168;2022-12-18T01:04:47;100916.25;;;5.61;40.66
73566;BME280;61846;52.970;-3.168;2022-12-18T01:07:13;100915.76;;;6.54;39.01
73566;BME280;61846;52.970;-3.168;2022-12-18T01:09:38;100910.96;;;4.53;42.36
73566;BME280;61846;52.970;-3.168;2022-12-18T01:12:05;100907.27;;;5.05;41.75
73566;BME280;61846;52.970;-3.168;2022-12-18T01:14:30;100898.14;;;5.31;41.31
73566;BME280;61846;52.970;-3.168;2022-12-18T01:16:55;100903.12;;;4.34;43.00
73566;BME280;61846;52.970;-3.168;2022-12-18T01:19:20;100904.42;;;5.21;41.68
73566;BME280;61846;52.970;-3.168;2022-12-18T01:21:45;100915.40;;;5.10;41.55
73566;BME280;61846;52.970;-3.168;2022-12-18T01:24:11;100919.68;;;5.48;40.79
73566;BME280;61846;52.970;-3.168;2022-12-18T01:26:36;100914.48;;;4.69;42.22
73566;BME280;61846;52.970;-3.168;2022-12-18T01:29:02;100916.33;;;4.07;43.49
73566;BME280;61846;52.970;-3.168;2022-12-18T01:31:29;100912.49;;;3.32;45.50
73566;BME280;61846;52.970;-3.168;2022-12-18T01:33:53;100906.17;;;4.48;43.32
73566;BME280;61846;52.970;-3.168;2022-12-18T01:36:20;100908.08;;;4.47;42.80
73566;BME280;61846;52.970;-3.168;2022-12-18T01:38:44;100905.43;;;5.14;42.13
73566;BME280;61846;52.970;-3.168;2022-12-18T01:41:09;100908.37;;;4.10;42.90
73566;BME280;61846;52.970;-3.168;2022-12-18T01:43:42;100903.45;;;4.78;42.18
73566;BME280;61846;52.970;-3.168;2022-12-18T01:46:00;100906.07;;;4.91;41.47
73566;BME280;61846;52.970;-3.168;2022-12-18T01:48:25;100912.90;;;5.00;41.80
73566;BME280;61846;52.970;-3.168;2022-12-18T01:50:50;100917.55;;;4.27;42.65
73566;BME280;61846;52.970;-3.168;2022-12-18T01:53:17;100920.15;;;4.28;43.37
73566;BME280;61846;52.970;-3.168;2022-12-18T01:55:43;100913.60;;;4.81;42.53
73566;BME280;61846;52.970;-3.168;2022-12-18T01:58:07;100913.94;;;3.88;43.62
73566;BME280;61846;52.970;-3.168;2022-12-18T02:00:32;100920.70;;;3.87;43.92
73566;BME280;61846;52.970;-3.168;2022-12-18T02:02:57;100922.18;;;4.56;42.79
73566;BME280;61846;52.970;-3.168;2022-12-18T02:05:31;100918.29;;;4.49;42.90
73566;BME280;61846;52.970;-3.168;2022-12-18T02:07:58;100924.01;;;3.46;43.90
73566;BME280;61846;52.970;-3.168;2022-12-18T02:10:19;100927.82;;;2.69;45.45
73566;BME280;61846;52.970;-3.168;2022-12-18T02:12:45;100924.23;;;2.48;47.18
73566;BME280;61846;52.970;-3.168;2022-12-18T02:15:09;100925.17;;;2.18;46.83
73566;BME280;61846;52.970;-3.168;2022-12-18T02:17:35;100925.14;;;3.09;45.77
73566;BME280;61846;52.970;-3.168;2022-12-18T02:20:05;100927.24;;;2.33;47.41
73566;BME280;61846;52.970;-3.168;2022-12-18T02:22:29;100923.10;;;2.29;47.49
73566;BME280;61846;52.970;-3.168;2022-12-18T02:24:56;100924.83;;;3.89;44.63
73566;BME280;61846;52.970;-3.168;2022-12-18T02:27:13;100918.19;;;4.25;43.89
73566;BME280;61846;52.970;-3.168;2022-12-18T02:29:40;100914.03;;;3.37;45.19
73566;BME280;61846;52.970;-3.168;2022-12-18T02:32:08;100910.81;;;2.10;47.35
73566;BME280;61846;52.970;-3.168;2022-12-18T02:34:32;100913.35;;;3.00;45.47
73566;BME280;61846;52.970;-3.168;2022-12-18T02:36:54;100910.98;;;3.15;45.75
73566;BME280;61846;52.970;-3.168;2022-12-18T02:39:21;100921.01;;;1.49;48.58
73566;BME280;61846;52.970;-3.168;2022-12-18T02:41:45;100915.28;;;3.27;45.36
73566;BME280;61846;52.970;-3.168;2022-12-18T02:44:12;100915.15;;;2.90;45.39
73566;BME280;61846;52.970;-3.168;2022-12-18T02:46:38;100902.25;;;3.81;43.69
73566;BME280;61846;52.970;-3.168;2022-12-18T02:49:11;100900.73;;;2.20;47.06
73566;BME280;61846;52.970;-3.168;2022-12-18T02:51:30;100896.95;;;1.73;47.61
73566;BME280;61846;52.970;-3.168;2022-12-18T02:53:58;100891.62;;;2.13;47.56
73566;BME280;61846;52.970;-3.168;2022-12-18T02:56:21;100885.07;;;0.98;49.25
73566;BME280;61846;52.970;-3.168;2022-12-18T02:58:49;100884.49;;;-1.29;54.79
73566;BME280;61846;52.970;-3.168;2022-12-18T03:01:13;100873.09;;;-1.47;56.21
73566;BME280;61846;52.970;-3.168;2022-12-18T03:03:38;100867.00;;;-1.65;57.14
73566;BME280;61846;52.970;-3.168;2022-12-18T03:06:03;100863.71;;;-2.52;58.73
73566;BME280;61846;52.970;-3.168;2022-12-18T03:08:27;100854.83;;;0.00;53.95
73566;BME280;61846;52.970;-3.168;2022-12-18T03:10:54;100854.71;;;-0.90;56.06
73566;BME280;61846;52.970;-3.168;2022-12-18T03:13:20;100845.48;;;-0.15;54.31
73566;BME280;61846;52.970;-3.168;2022-12-18T03:15:44;100840.08;;;-1.39;56.42
73566;BME280;61846;52.970;-3.168;2022-12-18T03:18:10;100830.94;;;0.09;53.09
73566;BME280;61846;52.970;-3.168;2022-12-18T03:20:34;100832.44;;;1.52;50.22
73566;BME280;61846;52.970;-3.168;2022-12-18T03:23:02;100830.47;;;-0.30;53.69
73566;BME280;61846;52.970;-3.168;2022-12-18T03:25:23;100824.11;;;1.66;48.68
73566;BME280;61846;52.970;-3.168;2022-12-18T03:27:50;100821.71;;;0.00;52.16
73566;BME280;61846;52.970;-3.168;2022-12-18T03:30:14;100818.41;;;1.23;49.01
73566;BME280;61846;52.970;-3.168;2022-12-18T03:32:42;100821.60;;;0.44;50.81
73566;BME280;61846;52.970;-3.168;2022-12-18T03:35:05;100817.75;;;-0.42;52.17
73566;BME280;61846;52.970;-3.168;2022-12-18T03:37:29;100816.24;;;-0.04;52.27
73566;BME280;61846;52.970;-3.168;2022-12-18T03:39:54;100820.05;;;0.68;51.24
73566;BME280;61846;52.970;-3.168;2022-12-18T03:42:25;100814.19;;;0.44;51.55
73566;BME280;61846;52.970;-3.168;2022-12-18T03:44:51;100808.70;;;-0.21;53.22
73566;BME280;61846;52.970;-3.168;2022-12-18T03:47:15;100799.46;;;-0.51;53.59
73566;BME280;61846;52.970;-3.168;2022-12-18T03:49:39;100793.10;;;-0.31;52.76
73566;BME280;61846;52.970;-3.168;2022-12-18T03:52:04;100792.68;;;-0.55;52.41
73566;BME280;61846;52.970;-3.168;2022-12-18T03:54:28;100793.24;;;0.93;49.15
73566;BME280;61846;52.970;-3.168;2022-12-18T03:56:58;100787.58;;;0.82;50.25
73566;BME280;61846;52.970;-3.168;2022-12-18T03:59:19;100778.86;;;0.72;49.98
73566;BME280;61846;52.970;-3.168;2022-12-18T04:01:47;100768.00;;;0.86;49.93
73566;BME280;61846;52.970;-3.168;2022-12-18T04:04:10;100759.94;;;-1.31;53.92
73566;BME280;61846;52.970;-3.168;2022-12-18T04:06:36;100754.06;;;0.64;50.69
73566;BME280;61846;52.970;-3.168;2022-12-18T04:09:01;100752.36;;;0.68;50.27
73566;BME280;61846;52.970;-3.168;2022-12-18T04:11:27;100759.03;;;0.11;50.91
73566;BME280;61846;52.970;-3.168;2022-12-18T04:13:56;100755.71;;;1.74;47.68
73566;BME280;61846;52.970;-3.168;2022-12-18T04:16:18;100754.78;;;1.22;48.94
73566;BME280;61846;52.970;-3.168;2022-12-18T04:18:43;100749.51;;;1.10;48.97
73566;BME280;61846;52.970;-3.168;2022-12-18T04:21:10;100735.88;;;1.65;47.16
73566;BME280;61846;52.970;-3.168;2022-12-18T04:23:34;100731.70;;;0.41;50.13
73566;BME280;61846;52.970;-3.168;2022-12-18T04:26:00;100724.01;;;-0.68;52.73
73566;BME280;61846;52.970;-3.168;2022-12-18T04:28:25;100723.28;;;-1.39;55.65
73566;BME280;61846;52.970;-3.168;2022-12-18T04:30:51;100718.24;;;-1.21;55.51
73566;BME280;61846;52.970;-3.168;2022-12-18T04:33:16;100710.91;;;-1.35;56.00
73566;BME280;61846;52.970;-3.168;2022-12-18T04:35:42;100702.22;;;-1.73;56.49
73566;BME280;61846;52.970;-3.168;2022-12-18T04:38:08;100692.71;;;-1.95;56.29
73566;BME280;61846;52.970;-3.168;2022-12-18T04:40:33;100693.16;;;0.14;51.72
73566;BME280;61846;52.970;-3.168;2022-12-18T04:42:59;100699.04;;;-0.68;53.01
73566;BME280;61846;52.970;-3.168;2022-12-18T04:45:24;100680.04;;;1.16;49.69
73566;BME280;61846;52.970;-3.168;2022-12-18T04:47:49;100675.49;;;0.08;51.72
73566;BME280;61846;52.970;-3.168;2022-12-18T04:50:14;100671.00;;;-1.12;53.24
73566;BME280;61846;52.970;-3.168;2022-12-18T04:52:39;100676.85;;;-1.04;53.10
73566;BME280;61846;52.970;-3.168;2022-12-18T04:55:05;100676.45;;;-0.34;51.35
73566;BME280;61846;52.970;-3.168;2022-12-18T04:57:30;100684.71;;;-1.45;54.63
73566;BME280;61846;52.970;-3.168;2022-12-18T04:59:56;100682.94;;;-1.33;54.92
73566;BME280;61846;52.970;-3.168;2022-12-18T05:02:21;100681.86;;;-0.69;52.46
73566;BME280;61846;52.970;-3.168;2022-12-18T05:04:47;100673.53;;;-0.68;52.27
73566;BME280;61846;52.970;-3.168;2022-12-18T05:07:12;100671.46;;;-1.03;53.76
73566;BME280;61846;52.970;-3.168;2022-12-18T05:09:37;100673.96;;;-1.80;54.49
73566;BME280;61846;52.970;-3.168;2022-12-18T05:12:03;100687.45;;;-0.38;50.97
73566;BME280;61846;52.970;-3.168;2022-12-18T05:14:28;100704.00;;;-0.99;52.77
73566;BME280;61846;52.970;-3.168;2022-12-18T05:16:54;100695.45;;;-0.87;53.56
73566;BME280;61846;52.970;-3.168;2022-12-18T05:19:19;100686.08;;;-0.06;51.28
73566;BME280;61846;52.970;-3.168;2022-12-18T05:21:44;100676.53;;;0.12;51.83
73566;BME280;61846;52.970;-3.168;2022-12-18T05:24:10;100672.89;;;1.49;47.79
73566;BME280;61846;52.970;-3.168;2022-12-18T05:26:35;100679.17;;;0.50;49.43
73566;BME280;61846;52.970;-3.168;2022-12-18T05:29:01;100657.04;;;-1.90;54.48
73566;BME280;61846;52.970;-3.168;2022-12-18T05:31:26;100659.81;;;-0.58;53.93
73566;BME280;61846;52.970;-3.168;2022-12-18T05:33:52;100666.90;;;-1.34;55.70
73566;BME280;61846;52.970;-3.168;2022-12-18T05:36:17;100673.87;;;-2.11;56.66
73566;BME280;61846;52.970;-3.168;2022-12-18T05:38:42;100684.89;;;-1.04;55.90
73566;BME280;61846;52.970;-3.168;2022-12-18T05:41:09;100677.98;;;-0.34;52.60
73566;BME280;61846;52.970;-3.168;2022-12-18T05:43:35;100678.86;;;0.33;51.34
73566;BME280;61846;52.970;-3.168;2022-12-18T05:46:03;100671.03;;;-0.97;54.58
73566;BME280;61846;52.970;-3.168;2022-12-18T05:48:24;100670.11;;;0.68;50.70
73566;BME280;61846;52.970;-3.168;2022-12-18T05:50:50;100666.50;;;1.04;49.93
73566;BME280;61846;52.970;-3.168;2022-12-18T05:53:17;100659.56;;;0.29;50.46
73566;BME280;61846;52.970;-3.168;2022-12-18T05:55:41;100652.93;;;-0.08;51.17
73566;BME280;61846;52.970;-3.168;2022-12-18T05:58:08;100650.28;;;-0.39;52.31
73566;BME280;61846;52.970;-3.168;2022-12-18T06:00:34;100641.60;;;1.09;50.86
73566;BME280;61846;52.970;-3.168;2022-12-18T06:02:57;100639.71;;;-0.07;52.85
73566;BME280;61846;52.970;-3.168;2022-12-18T06:05:22;100639.82;;;-0.80;54.88
73566;BME280;61846;52.970;-3.168;2022-12-18T06:07:48;100633.76;;;-1.29;55.39
73566;BME280;61846;52.970;-3.168;2022-12-18T06:10:13;100632.91;;;-0.91;54.84
73566;BME280;61846;52.970;-3.168;2022-12-18T06:12:39;100635.12;;;0.27;52.50
73566;BME280;61846;52.970;-3.168;2022-12-18T06:15:05;100627.77;;;0.79;51.15
73566;BME280;61846;52.970;-3.168;2022-12-18T06:17:30;100625.49;;;-0.92;54.49
73566;BME280;61846;52.970;-3.168;2022-12-18T06:19:56;100625.40;;;-0.62;54.43
73566;BME280;61846;52.970;-3.168;2022-12-18T06:22:21;100630.68;;;-0.24;53.25
73566;BME280;61846;52.970;-3.168;2022-12-18T06:24:46;100637.65;;;-1.63;56.49
73566;BME280;61846;52.970;-3.168;2022-12-18T06:27:11;100627.14;;;-0.93;55.22
73566;BME280;61846;52.970;-3.168;2022-12-18T06:29:36;100625.02;;;-0.93;56.21
73566;BME280;61846;52.970;-3.168;2022-12-18T06:32:03;100616.96;;;1.42;50.77
73566;BME280;61846;52.970;-3.168;2022-12-18T06:34:28;100622.78;;;-1.26;56.79
73566;BME280;61846;52.970;-3.168;2022-12-18T06:36:54;100618.39;;;-0.72;56.09
73566;BME280;61846;52.970;-3.168;2022-12-18T06:39:19;100607.35;;;-1.19;56.76
73566;BME280;61846;52.970;-3.168;2022-12-18T06:41:44;100605.55;;;-0.13;54.06
73566;BME280;61846;52.970;-3.168;2022-12-18T06:44:10;100599.18;;;-1.78;57.31
73566;BME280;61846;52.970;-3.168;2022-12-18T06:46:35;100597.84;;;-0.48;54.40
73566;BME280;61846;52.970;-3.168;2022-12-18T06:49:00;100596.62;;;-0.03;53.17
73566;BME280;61846;52.970;-3.168;2022-12-18T06:51:26;100595.69;;;-1.45;57.17
73566;BME280;61846;52.970;-3.168;2022-12-18T06:53:51;100598.55;;;-1.50;57.16
73566;BME280;61846;52.970;-3.168;2022-12-18T06:56:16;100598.25;;;-1.69;57.48
73566;BME280;61846;52.970;-3.168;2022-12-18T06:58:41;100596.61;;;-1.49;58.53
73566;BME280;61846;52.970;-3.168;2022-12-18T07:01:09;100589.63;;;-2.06;59.12
73566;BME280;61846;52.970;-3.168;2022-12-18T07:03:33;100591.59;;;-1.63;59.32
73566;BME280;61846;52.970;-3.168;2022-12-18T07:05:58;100599.57;;;-0.93;57.10
73566;BME280;61846;52.970;-3.168;2022-12-18T07:08:24;100604.90;;;-1.84;59.46
73566;BME280;61846;52.970;-3.168;2022-12-18T07:10:49;100602.45;;;-2.11;60.31
73566;BME280;61846;52.970;-3.168;2022-12-18T07:13:15;100592.40;;;-0.68;57.09
73566;BME280;61846;52.970;-3.168;2022-12-18T07:15:39;100595.69;;;-0.58;56.95
73566;BME280;61846;52.970;-3.168;2022-12-18T07:18:05;100597.74;;;-2.25;60.70
73566;BME280;61846;52.970;-3.168;2022-12-18T07:20:30;100593.27;;;-2.90;63.77
73566;BME280;61846;52.970;-3.168;2022-12-18T07:22:56;100594.19;;;-1.95;61.93
73566;BME280;61846;52.970;-3.168;2022-12-18T07:25:21;100598.35;;;-2.32;61.55
73566;BME280;61846;52.970;-3.168;2022-12-18T07:27:46;100598.69;;;-1.68;61.15
73566;BME280;61846;52.970;-3.168;2022-12-18T07:30:12;100591.07;;;-1.51;59.38
73566;BME280;61846;52.970;-3.168;2022-12-18T07:32:37;100580.46;;;-0.60;57.24
73566;BME280;61846;52.970;-3.168;2022-12-18T07:35:03;100580.63;;;0.40;53.22
73566;BME280;61846;52.970;-3.168;2022-12-18T07:37:28;100581.03;;;0.36;53.86
73566;BME280;61846;52.970;-3.168;2022-12-18T07:39:54;100573.14;;;2.09;50.78
73566;BME280;61846;52.970;-3.168;2022-12-18T07:42:20;100571.48;;;-0.10;54.85
73566;BME280;61846;52.970;-3.168;2022-12-18T07:44:45;100560.70;;;-1.39;57.56
73566;BME280;61846;52.970;-3.168;2022-12-18T07:47:10;100560.51;;;-1.45;58.80
73566;BME280;61846;52.970;-3.168;2022-12-18T07:49:36;100552.75;;;-2.26;61.47
73566;BME280;61846;52.970;-3.168;2022-12-18T07:52:01;100544.35;;;-0.99;57.96
73566;BME280;61846;52.970;-3.168;2022-12-18T07:54:26;100545.39;;;-2.31;61.38
73566;BME280;61846;52.970;-3.168;2022-12-18T07:56:52;100542.26;;;-1.28;59.87
73566;BME280;61846;52.970;-3.168;2022-12-18T07:59:18;100536.54;;;-1.70;61.44
73566;BME280;61846;52.970;-3.168;2022-12-18T08:01:43;100541.40;;;-1.10;59.70
73566;BME280;61846;52.970;-3.168;2022-12-18T08:04:09;100545.04;;;-1.74;60.40
73566;BME280;61846;52.970;-3.168;2022-12-18T08:06:34;100555.65;;;-2.54;62.53
73566;BME280;61846;52.970;-3.168;2022-12-18T08:09:01;100546.23;;;-1.60;59.85
73566;BME280;61846;52.970;-3.168;2022-12-18T08:11:27;100539.63;;;-1.81;61.35
73566;BME280;61846;52.970;-3.168;2022-12-18T08:13:51;100540.38;;;-1.85;61.21
73566;BME280;61846;52.970;-3.168;2022-12-18T08:16:17;100518.30;;;-2.23;63.55
73566;BME280;61846;52.970;-3.168;2022-12-18T08:18:42;100505.52;;;-2.04;63.89
73566;BME280;61846;52.970;-3.168;2022-12-18T08:21:09;100492.44;;;-0.97;59.97
73566;BME280;61846;52.970;-3.168;2022-12-18T08:23:33;100483.41;;;-1.72;61.92
73566;BME280;61846;52.970;-3.168;2022-12-18T08:25:59;100487.09;;;-1.73;62.06
73566;BME280;61846;52.970;-3.168;2022-12-18T08:28:24;100484.17;;;-0.98;61.13
73566;BME280;61846;52.970;-3.168;2022-12-18T08:30:52;100467.22;;;-2.32;63.19
73566;BME280;61846;52.970;-3.168;2022-12-18T08:33:15;100454.57;;;-1.76;63.78
73566;BME280;61846;52.970;-3.168;2022-12-18T08:35:40;100464.59;;;-2.68;65.29
73566;BME280;61846;52.970;-3.168;2022-12-18T08:38:05;100445.95;;;-2.06;64.95
73566;BME280;61846;52.970;-3.168;2022-12-18T08:40:31;100433.10;;;-2.68;66.14
73566;BME280;61846;52.970;-3.168;2022-12-18T08:42:57;100418.41;;;-0.64;60.80
73566;BME280;61846;52.970;-3.168;2022-12-18T08:45:22;100420.55;;;-2.38;63.95
73566;BME280;61846;52.970;-3.168;2022-12-18T08:47:47;100413.58;;;-1.96;63.52
73566;BME280;61846;52.970;-3.168;2022-12-18T08:50:12;100428.17;;;-2.00;63.17
73566;BME280;61846;52.970;-3.168;2022-12-18T08:52:38;100422.23;;;-2.02;65.00
73566;BME280;61846;52.970;-3.168;2022-12-18T08:55:05;100426.28;;;-2.53;66.01
73566;BME280;61846;52.970;-3.168;2022-12-18T08:57:29;100424.41;;;-2.67;65.12
73566;BME280;61846;52.970;-3.168;2022-12-18T08:59:54;100430.46;;;-0.96;62.66
73566;BME280;61846;52.970;-3.168;2022-12-18T09:02:19;100432.62;;;-1.77;63.74
73566;BME280;61846;52.970;-3.168;2022-12-18T09:04:46;100430.45;;;-1.03;61.53
73566;BME280;61846;52.970;-3.168;2022-12-18T09:07:10;100431.73;;;-1.70;64.04
73566;BME280;61846;52.970;-3.168;2022-12-18T09:09:36;100412.21;;;-1.92;64.11
73566;BME280;61846;52.970;-3.168;2022-12-18T09:12:01;100398.98;;;-2.34;64.85
73566;BME280;61846;52.970;-3.168;2022-12-18T09:14:26;100381.05;;;-1.92;65.04
73566;BME280;61846;52.970;-3.168;2022-12-18T09:16:51;100384.57;;;-1.60;64.18
73566;BME280;61846;52.970;-3.168;2022-12-18T09:19:17;100377.35;;;-2.63;67.66
73566;BME280;61846;52.970;-3.168;2022-12-18T09:21:42;100385.20;;;-1.31;63.61
73566;BME280;61846;52.970;-3.168;2022-12-18T09:24:11;100385.91;;;-2.53;65.58
73566;BME280;61846;52.970;-3.168;2022-12-18T09:26:33;100382.04;;;-1.32;63.58
73566;BME280;61846;52.970;-3.168;2022-12-18T09:28:59;100381.14;;;-1.88;64.30
73566;BME280;61846;52.970;-3.168;2022-12-18T09:31:24;100381.80;;;-2.62;65.57
73566;BME280;61846;52.970;-3.168;2022-12-18T09:33:49;100378.91;;;-1.45;63.09
73566;BME280;61846;52.970;-3.168;2022-12-18T09:36:16;100380.05;;;-1.52;63.36
73566;BME280;61846;52.970;-3.168;2022-12-18T09:38:40;100371.25;;;-1.29;62.17
73566;BME280;61846;52.970;-3.168;2022-12-18T09:41:15;100367.98;;;-1.03;60.56
73566;BME280;61846;52.970;-3.168;2022-12-18T09:43:37;100369.05;;;-2.09;63.37
73566;BME280;61846;52.970;-3.168;2022-12-18T09:46:01;100361.22;;;-1.48;62.90
73566;BME280;61846;52.970;-3.168;2022-12-18T09:48:26;100343.60;;;-0.46;60.19
73566;BME280;61846;52.970;-3.168;2022-12-18T09:50:50;100334.71;;;-1.71;63.72
73566;BME280;61846;52.970;-3.168;2022-12-18T09:53:18;100324.87;;;-1.67;64.30
73566;BME280;61846;52.970;-3.168;2022-12-18T09:55:41;100321.70;;;-1.59;64.15
73566;BME280;61846;52.970;-3.168;2022-12-18T09:58:07;100323.16;;;-2.50;65.97
73566;BME280;61846;52.970;-3.168;2022-12-18T10:00:30;100325.84;;;-1.11;64.22
73566;BME280;61846;52.970;-3.168;2022-12-18T10:03:00;100321.25;;;-1.05;62.98
73566;BME280;61846;52.970;-3.168;2022-12-18T10:05:29;100303.41;;;-1.53;63.58
73566;BME280;61846;52.970;-3.168;2022-12-18T10:07:53;100315.79;;;-1.25;62.72
73566;BME280;61846;52.970;-3.168;2022-12-18T10:10:21;100297.65;;;-1.07;62.92
73566;BME280;61846;52.970;-3.168;2022-12-18T10:12:43;100290.74;;;-0.81;62.27
73566;BME280;61846;52.970;-3.168;2022-12-18T10:15:07;100299.61;;;-2.37;64.47
73566;BME280;61846;52.970;-3.168;2022-12-18T10:17:34;100293.64;;;-0.97;62.72
73566;BME280;61846;52.970;-3.168;2022-12-18T10:19:57;100286.08;;;-1.84;66.56
73566;BME280;61846;52.970;-3.168;2022-12-18T10:22:30;100286.36;;;-2.29;67.79
73566;BME280;61846;52.970;-3.168;2022-12-18T10:24:52;100280.26;;;-1.38;65.02
73566;BME280;61846;52.970;-3.168;2022-12-18T10:27:15;100273.98;;;-1.84;66.11
73566;BME280;61846;52.970;-3.168;2022-12-18T10:29:37;100267.98;;;-1.38;65.30
73566;BME280;61846;52.970;-3.168;2022-12-18T10:32:02;100259.49;;;-1.86;66.28
73566;BME280;61846;52.970;-3.168;2022-12-18T10:34:27;100256.83;;;-0.86;63.62
73566;BME280;61846;52.970;-3.168;2022-12-18T10:36:53;100255.76;;;-1.50;64.43
73566;BME280;61846;52.970;-3.168;2022-12-18T10:39:20;100271.30;;;-2.57;68.87
73566;BME280;61846;52.970;-3.168;2022-12-18T10:41:43;100263.44;;;-1.62;66.36
73566;BME280;61846;52.970;-3.168;2022-12-18T10:44:14;100255.97;;;-1.73;65.59
73566;BME280;61846;52.970;-3.168;2022-12-18T10:46:35;100240.07;;;-1.10;64.12
73566;BME280;61846;52.970;-3.168;2022-12-18T10:49:00;100241.29;;;-1.76;65.69
73566;BME280;61846;52.970;-3.168;2022-12-18T10:51:27;100237.84;;;-1.36;64.86
73566;BME280;61846;52.970;-3.168;2022-12-18T10:53:54;100231.30;;;-1.15;64.84
73566;BME280;61846;52.970;-3.168;2022-12-18T10:56:20;100220.56;;;-1.20;65.11
73566;BME280;61846;52.970;-3.168;2022-12-18T10:58:41;100213.01;;;-1.95;68.38
73566;BME280;61846;52.970;-3.168;2022-12-18T11:01:09;100199.42;;;-1.29;65.64
73566;BME280;61846;52.970;-3.168;2022-12-18T11:03:33;100210.90;;;-1.84;67.16
73566;BME280;61846;52.970;-3.168;2022-12-18T11:06:03;100214.71;;;-1.09;66.43
73566;BME280;61846;52.970;-3.168;2022-12-18T11:08:23;100219.64;;;-1.89;67.84
73566;BME280;61846;52.970;-3.168;2022-12-18T11:10:50;100197.05;;;-0.21;62.61
73566;BME280;61846;52.970;-3.168;2022-12-18T11:13:20;100193.44;;;-1.61;65.89
73566;BME280;61846;52.970;-3.168;2022-12-18T11:15:40;100190.99;;;-0.93;64.97
73566;BME280;61846;52.970;-3.168;2022-12-18T11:20:32;100177.08;;;0.11;62.51
73566;BME280;61846;52.970;-3.168;2022-12-18T11:22:59;100171.50;;;0.17;61.41
73566;BME280;61846;52.970;-3.168;2022-12-18T11:25:23;100176.15;;;-0.80;63.11
73566;BME280;61846;52.970;-3.168;2022-12-18T11:27:50;100154.77;;;0.21;61.31
73566;BME280;61846;52.970;-3.168;2022-12-18T11:30:21;100150.96;;;0.64;59.51
73566;BME280;61846;52.970;-3.168;2022-12-18T11:32:40;100147.86;;;-0.27;61.98
73566;BME280;61846;52.970;-3.168;2022-12-18T11:35:15;100131.76;;;-0.33;63.05
73566;BME280;61846;52.970;-3.168;2022-12-18T11:37:31;100149.37;;;-1.25;65.75
73566;BME280;61846;52.970;-3.168;2022-12-18T11:39:59;100130.10;;;-0.16;63.51
73566;BME280;61846;52.970;-3.168;2022-12-18T11:42:25;100116.99;;;0.16;61.96
73566;BME280;61846;52.970;-3.168;2022-12-18T11:44:48;100118.87;;;-1.11;65.43
73566;BME280;61846;52.970;-3.168;2022-12-18T11:47:19;100118.08;;;-1.47;67.54
73566;BME280;61846;52.970;-3.168;2022-12-18T11:49:38;100108.65;;;-1.34;67.70
73566;BME280;61846;52.970;-3.168;2022-12-18T11:52:09;100094.30;;;-0.63;65.46
73566;BME280;61846;52.970;-3.168;2022-12-18T11:54:28;100099.36;;;-1.53;68.10
73566;BME280;61846;52.970;-3.168;2022-12-18T11:56:58;100085.55;;;-1.15;67.39
73566;BME280;61846;52.970;-3.168;2022-12-18T11:59:26;100085.33;;;-0.09;64.84
73566;BME280;61846;52.970;-3.168;2022-12-18T12:01:50;100071.84;;;0.16;64.28
73566;BME280;61846;52.970;-3.168;2022-12-18T12:04:20;100069.57;;;-0.82;65.13
73566;BME280;61846;52.970;-3.168;2022-12-18T12:06:40;100066.23;;;-0.57;65.54
73566;BME280;61846;52.970;-3.168;2022-12-18T12:09:07;100049.83;;;-0.47;65.61
73566;BME280;61846;52.970;-3.168;2022-12-18T12:11:34;100047.35;;;-0.42;63.96
73566;BME280;61846;52.970;-3.168;2022-12-18T12:14:03;100039.72;;;0.36;62.54
73566;BME280;61846;52.970;-3.168;2022-12-18T12:16:22;100048.58;;;-2.10;70.05
73566;BME280;61846;52.970;-3.168;2022-12-18T12:18:54;100027.44;;;-1.86;70.40
73566;BME280;61846;52.970;-3.168;2022-12-18T12:21:14;100028.35;;;-1.47;70.89
73566;BME280;61846;52.970;-3.168;2022-12-18T12:23:40;100011.56;;;-0.88;67.37
73566;BME280;61846;52.970;-3.168;2022-12-18T12:26:02;100008.30;;;-0.63;66.64
73566;BME280;61846;52.970;-3.168;2022-12-18T12:28:37;99998.76;;;-0.98;67.52
73566;BME280;61846;52.970;-3.168;2022-12-18T12:30:57;100000.51;;;-0.90;68.69
73566;BME280;61846;52.970;-3.168;2022-12-18T12:33:24;100002.26;;;-1.07;68.97
73566;BME280;61846;52.970;-3.168;2022-12-18T12:35:47;100006.85;;;-1.71;69.92